Terminal Aerodrome Forecast
Issued by NWS

Home | Current Version | Previous Version | Text Only | Print | Product List | Glossary On
Versions: 1 2 3 4 5 6 7 8 9 10 11 12
000
FTUS42 KMLB 242326
TAFISM
TAF
KISM 242326Z 2500/2524 19007KT P6SM VCSH SCT040 BKN250
     FM250200 13004KT P6SM SCT250
     FM251400 17007KT P6SM SCT040
     FM252000 14009KT P6SM VCTS BKN035CB=

USA.gov is the U.S. government's official web portal to all federal, state and local government web resources and services.